sim
Sign-in with your pilot id or email,
or register
Callsign
Passwort

Schedule Details

Flight Number: EWG3596
Departure: Hannover Langenhagen Airport (EDDV) at 02:20
Arrival: Palma de Mallorca Airport (LEPA) at 04:40
Route: Eurowings Passenger Schedule. Enter filed route here before submitting Pirep.

Weather Information
Getting current METAR information for EDDV 251620Z 35011KT 9999 BKN033 14/07 Q1032 NOSIG
Getting current METAR information for LEPA 251600Z 10003KT CAVOK 27/12 Q1024 NOSIG

Schedule Frequency

Route Map